sensor_id;sensor_type;location;lat;lon;timestamp;temperature;humidity
73586;DHT22;61865;50.232;18.614;2023-03-23T00:01:49;7.30;99.90
73586;DHT22;61865;50.232;18.614;2023-03-23T00:04:12;7.30;99.90
73586;DHT22;61865;50.232;18.614;2023-03-23T00:06:34;7.30;99.90
73586;DHT22;61865;50.232;18.614;2023-03-23T00:08:57;7.20;99.90
73586;DHT22;61865;50.232;18.614;2023-03-23T00:11:22;7.20;99.90
73586;DHT22;61865;50.232;18.614;2023-03-23T00:13:45;7.10;99.90
73586;DHT22;61865;50.232;18.614;2023-03-23T00:16:07;7.10;99.90
73586;DHT22;61865;50.232;18.614;2023-03-23T00:18:37;7.00;99.90
73586;DHT22;61865;50.232;18.614;2023-03-23T00:21:00;7.00;99.90
73586;DHT22;61865;50.232;18.614;2023-03-23T00:23:25;7.10;99.90
73586;DHT22;61865;50.232;18.614;2023-03-23T00:25:48;7.10;99.90
73586;DHT22;61865;50.232;18.614;2023-03-23T00:28:10;7.10;99.90
73586;DHT22;61865;50.232;18.614;2023-03-23T00:30:34;7.10;99.90
73586;DHT22;61865;50.232;18.614;2023-03-23T00:32:56;7.10;99.90
73586;DHT22;61865;50.232;18.614;2023-03-23T00:35:18;7.10;99.90
73586;DHT22;61865;50.232;18.614;2023-03-23T00:37:41;7.00;99.90
73586;DHT22;61865;50.232;18.614;2023-03-23T00:40:05;7.10;99.90
73586;DHT22;61865;50.232;18.614;2023-03-23T00:42:30;7.10;99.90
73586;DHT22;61865;50.232;18.614;2023-03-23T00:44:57;7.10;99.90
73586;DHT22;61865;50.232;18.614;2023-03-23T00:47:21;7.10;99.90
73586;DHT22;61865;50.232;18.614;2023-03-23T00:49:43;7.10;99.90
73586;DHT22;61865;50.232;18.614;2023-03-23T00:52:06;7.00;99.90
73586;DHT22;61865;50.232;18.614;2023-03-23T00:54:29;7.00;99.90
73586;DHT22;61865;50.232;18.614;2023-03-23T00:56:51;7.00;99.90
73586;DHT22;61865;50.232;18.614;2023-03-23T00:59:14;7.10;99.90
73586;DHT22;61865;50.232;18.614;2023-03-23T01:01:36;6.90;99.90
73586;DHT22;61865;50.232;18.614;2023-03-23T01:03:58;6.80;99.90
73586;DHT22;61865;50.232;18.614;2023-03-23T01:06:24;6.70;99.90
73586;DHT22;61865;50.232;18.614;2023-03-23T01:08:46;6.60;99.90
73586;DHT22;61865;50.232;18.614;2023-03-23T01:11:12;6.60;99.90
73586;DHT22;61865;50.232;18.614;2023-03-23T01:13:35;6.60;99.90
73586;DHT22;61865;50.232;18.614;2023-03-23T01:15:57;6.60;99.90
73586;DHT22;61865;50.232;18.614;2023-03-23T01:18:18;6.60;99.90
73586;DHT22;61865;50.232;18.614;2023-03-23T01:20:40;6.60;99.90
73586;DHT22;61865;50.232;18.614;2023-03-23T01:23:03;6.60;99.90
73586;DHT22;61865;50.232;18.614;2023-03-23T01:25:25;6.60;99.90
73586;DHT22;61865;50.232;18.614;2023-03-23T01:27:48;6.70;99.90
73586;DHT22;61865;50.232;18.614;2023-03-23T01:30:12;6.60;99.90
73586;DHT22;61865;50.232;18.614;2023-03-23T01:32:34;6.60;99.90
73586;DHT22;61865;50.232;18.614;2023-03-23T01:34:56;6.70;99.90
73586;DHT22;61865;50.232;18.614;2023-03-23T01:37:18;6.70;99.90
73586;DHT22;61865;50.232;18.614;2023-03-23T01:39:40;6.80;99.90
73586;DHT22;61865;50.232;18.614;2023-03-23T01:42:02;6.90;99.90
73586;DHT22;61865;50.232;18.614;2023-03-23T01:47:22;7.00;99.90
73586;DHT22;61865;50.232;18.614;2023-03-23T01:49:47;7.00;99.90
73586;DHT22;61865;50.232;18.614;2023-03-23T01:52:14;7.10;99.90
73586;DHT22;61865;50.232;18.614;2023-03-23T01:54:38;7.10;99.90
73586;DHT22;61865;50.232;18.614;2023-03-23T01:57:03;7.10;99.90
73586;DHT22;61865;50.232;18.614;2023-03-23T01:59:28;7.10;99.90
73586;DHT22;61865;50.232;18.614;2023-03-23T02:01:51;7.10;99.90
73586;DHT22;61865;50.232;18.614;2023-03-23T02:04:16;7.00;99.90
73586;DHT22;61865;50.232;18.614;2023-03-23T02:06:42;7.00;99.90
73586;DHT22;61865;50.232;18.614;2023-03-23T02:09:05;7.00;99.90
73586;DHT22;61865;50.232;18.614;2023-03-23T02:11:27;7.00;99.90
73586;DHT22;61865;50.232;18.614;2023-03-23T02:13:50;7.10;99.90
73586;DHT22;61865;50.232;18.614;2023-03-23T02:16:19;7.10;99.90
73586;DHT22;61865;50.232;18.614;2023-03-23T02:18:54;7.20;99.90
73586;DHT22;61865;50.232;18.614;2023-03-23T02:21:44;7.30;99.90
73586;DHT22;61865;50.232;18.614;2023-03-23T02:27:06;7.60;99.90
73586;DHT22;61865;50.232;18.614;2023-03-23T02:30:08;7.80;99.90
73586;DHT22;61865;50.232;18.614;2023-03-23T02:35:30;8.20;99.90
73586;DHT22;61865;50.232;18.614;2023-03-23T02:37:59;8.40;99.90
73586;DHT22;61865;50.232;18.614;2023-03-23T02:40:27;8.50;99.90
73586;DHT22;61865;50.232;18.614;2023-03-23T02:42:52;8.80;99.90
73586;DHT22;61865;50.232;18.614;2023-03-23T02:45:16;8.90;99.90
73586;DHT22;61865;50.232;18.614;2023-03-23T02:47:39;9.00;99.90
73586;DHT22;61865;50.232;18.614;2023-03-23T02:50:05;9.00;99.90
73586;DHT22;61865;50.232;18.614;2023-03-23T02:52:31;9.00;99.90
73586;DHT22;61865;50.232;18.614;2023-03-23T02:54:55;9.00;99.90
73586;DHT22;61865;50.232;18.614;2023-03-23T02:57:19;9.00;99.90
73586;DHT22;61865;50.232;18.614;2023-03-23T02:59:41;9.00;99.90
73586;DHT22;61865;50.232;18.614;2023-03-23T03:02:06;9.00;99.90
73586;DHT22;61865;50.232;18.614;2023-03-23T03:04:30;9.00;99.90
73586;DHT22;61865;50.232;18.614;2023-03-23T03:07:22;9.10;99.90
73586;DHT22;61865;50.232;18.614;2023-03-23T03:09:50;9.00;99.90
73586;DHT22;61865;50.232;18.614;2023-03-23T03:12:17;9.10;99.90
73586;DHT22;61865;50.232;18.614;2023-03-23T03:14:47;9.20;99.90
73586;DHT22;61865;50.232;18.614;2023-03-23T03:17:17;9.20;99.90
73586;DHT22;61865;50.232;18.614;2023-03-23T03:19:44;9.30;99.90
73586;DHT22;61865;50.232;18.614;2023-03-23T03:22:08;9.30;99.90
73586;DHT22;61865;50.232;18.614;2023-03-23T03:24:31;9.40;99.90
73586;DHT22;61865;50.232;18.614;2023-03-23T03:26:57;9.50;99.90
73586;DHT22;61865;50.232;18.614;2023-03-23T03:29:22;9.40;99.90
73586;DHT22;61865;50.232;18.614;2023-03-23T03:31:45;9.50;99.90
73586;DHT22;61865;50.232;18.614;2023-03-23T03:34:08;9.50;99.90
73586;DHT22;61865;50.232;18.614;2023-03-23T03:36:32;9.50;99.90
73586;DHT22;61865;50.232;18.614;2023-03-23T03:38:55;9.60;99.90
73586;DHT22;61865;50.232;18.614;2023-03-23T03:41:20;9.70;99.90
73586;DHT22;61865;50.232;18.614;2023-03-23T03:43:43;9.70;99.90
73586;DHT22;61865;50.232;18.614;2023-03-23T03:46:05;9.80;99.90
73586;DHT22;61865;50.232;18.614;2023-03-23T03:48:27;9.70;99.90
73586;DHT22;61865;50.232;18.614;2023-03-23T03:50:49;9.70;99.90
73586;DHT22;61865;50.232;18.614;2023-03-23T03:53:12;9.70;99.90
73586;DHT22;61865;50.232;18.614;2023-03-23T03:55:34;9.70;99.90
73586;DHT22;61865;50.232;18.614;2023-03-23T03:57:58;9.60;99.90
73586;DHT22;61865;50.232;18.614;2023-03-23T04:00:22;9.50;99.90
73586;DHT22;61865;50.232;18.614;2023-03-23T04:02:45;9.40;99.90
73586;DHT22;61865;50.232;18.614;2023-03-23T04:05:11;9.30;99.90
73586;DHT22;61865;50.232;18.614;2023-03-23T04:07:36;9.20;99.90
73586;DHT22;61865;50.232;18.614;2023-03-23T04:09:59;9.10;99.90
73586;DHT22;61865;50.232;18.614;2023-03-23T04:12:22;9.10;99.90
73586;DHT22;61865;50.232;18.614;2023-03-23T04:14:43;9.00;99.90
73586;DHT22;61865;50.232;18.614;2023-03-23T04:17:07;8.90;99.90
73586;DHT22;61865;50.232;18.614;2023-03-23T04:19:31;8.80;99.90
73586;DHT22;61865;50.232;18.614;2023-03-23T04:21:53;8.70;99.90
73586;DHT22;61865;50.232;18.614;2023-03-23T04:24:16;8.60;99.90
73586;DHT22;61865;50.232;18.614;2023-03-23T04:26:41;8.50;99.90
73586;DHT22;61865;50.232;18.614;2023-03-23T04:29:05;8.50;99.90
73586;DHT22;61865;50.232;18.614;2023-03-23T04:31:27;8.40;99.90
73586;DHT22;61865;50.232;18.614;2023-03-23T04:33:50;8.40;99.90
73586;DHT22;61865;50.232;18.614;2023-03-23T04:36:13;8.30;99.90
73586;DHT22;61865;50.232;18.614;2023-03-23T04:38:36;8.20;99.90
73586;DHT22;61865;50.232;18.614;2023-03-23T04:40:59;8.20;99.90
73586;DHT22;61865;50.232;18.614;2023-03-23T04:43:23;8.20;99.90
73586;DHT22;61865;50.232;18.614;2023-03-23T04:45:45;8.10;99.90
73586;DHT22;61865;50.232;18.614;2023-03-23T04:48:07;8.10;99.90
73586;DHT22;61865;50.232;18.614;2023-03-23T04:50:32;8.00;99.90
73586;DHT22;61865;50.232;18.614;2023-03-23T04:52:54;8.00;99.90
73586;DHT22;61865;50.232;18.614;2023-03-23T04:55:18;8.00;99.90
73586;DHT22;61865;50.232;18.614;2023-03-23T04:57:40;7.90;99.90
73586;DHT22;61865;50.232;18.614;2023-03-23T05:00:02;7.90;99.90
73586;DHT22;61865;50.232;18.614;2023-03-23T05:02:29;7.90;99.90
73586;DHT22;61865;50.232;18.614;2023-03-23T05:04:54;7.90;99.90
73586;DHT22;61865;50.232;18.614;2023-03-23T05:07:17;7.90;99.90
73586;DHT22;61865;50.232;18.614;2023-03-23T05:09:39;7.90;99.90
73586;DHT22;61865;50.232;18.614;2023-03-23T05:12:06;8.00;99.90
73586;DHT22;61865;50.232;18.614;2023-03-23T05:14:28;8.10;99.90
73586;DHT22;61865;50.232;18.614;2023-03-23T05:16:50;8.10;99.90
73586;DHT22;61865;50.232;18.614;2023-03-23T05:19:12;8.30;99.90
73586;DHT22;61865;50.232;18.614;2023-03-23T05:21:34;8.30;99.90
73586;DHT22;61865;50.232;18.614;2023-03-23T05:23:58;8.50;99.90
73586;DHT22;61865;50.232;18.614;2023-03-23T05:26:21;8.60;99.90
73586;DHT22;61865;50.232;18.614;2023-03-23T05:28:44;8.70;99.90
73586;DHT22;61865;50.232;18.614;2023-03-23T05:31:06;8.80;99.90
73586;DHT22;61865;50.232;18.614;2023-03-23T05:33:28;8.90;99.90
73586;DHT22;61865;50.232;18.614;2023-03-23T05:35:50;9.00;99.90
73586;DHT22;61865;50.232;18.614;2023-03-23T05:38:11;9.10;99.90
73586;DHT22;61865;50.232;18.614;2023-03-23T05:40:36;9.20;99.90
73586;DHT22;61865;50.232;18.614;2023-03-23T05:42:58;9.30;99.90
73586;DHT22;61865;50.232;18.614;2023-03-23T05:45:23;9.40;99.90
73586;DHT22;61865;50.232;18.614;2023-03-23T05:47:46;9.50;99.90
73586;DHT22;61865;50.232;18.614;2023-03-23T05:50:11;9.60;99.90
73586;DHT22;61865;50.232;18.614;2023-03-23T05:52:35;9.70;99.90
73586;DHT22;61865;50.232;18.614;2023-03-23T05:54:57;9.80;99.90
73586;DHT22;61865;50.232;18.614;2023-03-23T05:57:21;9.90;99.90
73586;DHT22;61865;50.232;18.614;2023-03-23T05:59:43;10.00;99.90
73586;DHT22;61865;50.232;18.614;2023-03-23T06:02:05;10.10;99.90
73586;DHT22;61865;50.232;18.614;2023-03-23T06:04:27;10.20;99.90
73586;DHT22;61865;50.232;18.614;2023-03-23T06:06:49;10.30;99.90
73586;DHT22;61865;50.232;18.614;2023-03-23T06:09:12;10.30;99.90
73586;DHT22;61865;50.232;18.614;2023-03-23T06:11:34;10.40;99.90
73586;DHT22;61865;50.232;18.614;2023-03-23T06:13:57;10.50;99.90
73586;DHT22;61865;50.232;18.614;2023-03-23T06:16:19;10.60;99.90
73586;DHT22;61865;50.232;18.614;2023-03-23T06:18:41;10.70;99.90
73586;DHT22;61865;50.232;18.614;2023-03-23T06:21:03;10.90;99.90
73586;DHT22;61865;50.232;18.614;2023-03-23T06:23:26;10.90;99.90
73586;DHT22;61865;50.232;18.614;2023-03-23T06:25:49;11.00;99.90
73586;DHT22;61865;50.232;18.614;2023-03-23T06:28:12;11.00;99.90
73586;DHT22;61865;50.232;18.614;2023-03-23T06:30:36;11.10;99.90
73586;DHT22;61865;50.232;18.614;2023-03-23T06:32:58;11.20;99.90
73586;DHT22;61865;50.232;18.614;2023-03-23T06:35:20;11.30;99.90
73586;DHT22;61865;50.232;18.614;2023-03-23T06:37:42;11.50;99.90
73586;DHT22;61865;50.232;18.614;2023-03-23T06:40:05;11.50;99.90
73586;DHT22;61865;50.232;18.614;2023-03-23T06:42:27;11.70;99.90
73586;DHT22;61865;50.232;18.614;2023-03-23T06:44:52;11.80;99.90
73586;DHT22;61865;50.232;18.614;2023-03-23T06:47:18;11.90;99.90
73586;DHT22;61865;50.232;18.614;2023-03-23T06:49:40;12.00;99.90
73586;DHT22;61865;50.232;18.614;2023-03-23T06:52:02;12.10;99.90
73586;DHT22;61865;50.232;18.614;2023-03-23T06:54:26;12.20;99.90
73586;DHT22;61865;50.232;18.614;2023-03-23T06:56:48;12.30;99.90
73586;DHT22;61865;50.232;18.614;2023-03-23T06:59:11;12.30;99.90
73586;DHT22;61865;50.232;18.614;2023-03-23T07:01:37;12.40;99.90
73586;DHT22;61865;50.232;18.614;2023-03-23T07:04:01;12.40;99.90
73586;DHT22;61865;50.232;18.614;2023-03-23T07:06:24;12.40;99.90
73586;DHT22;61865;50.232;18.614;2023-03-23T07:08:49;12.50;99.90
73586;DHT22;61865;50.232;18.614;2023-03-23T07:11:11;12.60;99.90
73586;DHT22;61865;50.232;18.614;2023-03-23T07:13:34;12.60;99.90
73586;DHT22;61865;50.232;18.614;2023-03-23T07:15:58;12.60;99.90
73586;DHT22;61865;50.232;18.614;2023-03-23T07:18:24;12.60;99.90
73586;DHT22;61865;50.232;18.614;2023-03-23T07:20:48;12.70;99.90
73586;DHT22;61865;50.232;18.614;2023-03-23T07:23:10;12.70;99.90
73586;DHT22;61865;50.232;18.614;2023-03-23T07:25:33;12.80;99.90
73586;DHT22;61865;50.232;18.614;2023-03-23T07:27:55;12.90;99.90
73586;DHT22;61865;50.232;18.614;2023-03-23T07:30:18;12.90;99.90
73586;DHT22;61865;50.232;18.614;2023-03-23T07:32:42;12.90;99.90
73586;DHT22;61865;50.232;18.614;2023-03-23T07:35:07;13.00;99.90
73586;DHT22;61865;50.232;18.614;2023-03-23T07:37:33;13.00;99.90
73586;DHT22;61865;50.232;18.614;2023-03-23T07:39:56;13.10;99.90
73586;DHT22;61865;50.232;18.614;2023-03-23T07:42:18;13.10;99.90
73586;DHT22;61865;50.232;18.614;2023-03-23T07:44:40;13.10;99.90
73586;DHT22;61865;50.232;18.614;2023-03-23T07:47:03;13.10;99.90
73586;DHT22;61865;50.232;18.614;2023-03-23T07:49:25;13.00;99.90
73586;DHT22;61865;50.232;18.614;2023-03-23T07:51:54;13.00;99.90
73586;DHT22;61865;50.232;18.614;2023-03-23T07:54:17;13.00;99.90
73586;DHT22;61865;50.232;18.614;2023-03-23T07:56:40;13.00;99.90
73586;DHT22;61865;50.232;18.614;2023-03-23T07:59:05;13.00;99.90
73586;DHT22;61865;50.232;18.614;2023-03-23T08:01:28;13.00;99.90
73586;DHT22;61865;50.232;18.614;2023-03-23T08:03:50;13.10;99.90
73586;DHT22;61865;50.232;18.614;2023-03-23T08:06:16;13.20;99.90
73586;DHT22;61865;50.232;18.614;2023-03-23T08:08:38;13.30;99.90
73586;DHT22;61865;50.232;18.614;2023-03-23T08:11:02;13.50;99.90
73586;DHT22;61865;50.232;18.614;2023-03-23T08:13:24;13.60;99.90
73586;DHT22;61865;50.232;18.614;2023-03-23T08:15:46;13.80;99.90
73586;DHT22;61865;50.232;18.614;2023-03-23T08:18:09;14.00;99.90
73586;DHT22;61865;50.232;18.614;2023-03-23T08:20:31;14.30;99.20
73586;DHT22;61865;50.232;18.614;2023-03-23T08:22:54;14.30;97.00
73586;DHT22;61865;50.232;18.614;2023-03-23T08:25:17;14.40;96.80
73586;DHT22;61865;50.232;18.614;2023-03-23T08:27:40;14.50;97.50
73586;DHT22;61865;50.232;18.614;2023-03-23T08:30:05;14.70;93.20
73586;DHT22;61865;50.232;18.614;2023-03-23T08:32:27;14.80;92.10
73586;DHT22;61865;50.232;18.614;2023-03-23T08:34:49;15.00;82.40
73586;DHT22;61865;50.232;18.614;2023-03-23T08:37:11;15.10;83.20
73586;DHT22;61865;50.232;18.614;2023-03-23T08:39:33;15.30;77.90
73586;DHT22;61865;50.232;18.614;2023-03-23T08:41:55;15.30;73.80
73586;DHT22;61865;50.232;18.614;2023-03-23T08:44:18;15.40;74.30
73586;DHT22;61865;50.232;18.614;2023-03-23T08:46:41;15.40;76.30
73586;DHT22;61865;50.232;18.614;2023-03-23T08:49:02;15.60;75.30
73586;DHT22;61865;50.232;18.614;2023-03-23T08:51:26;15.80;72.00
73586;DHT22;61865;50.232;18.614;2023-03-23T08:53:48;16.00;70.70
73586;DHT22;61865;50.232;18.614;2023-03-23T08:56:11;16.20;69.40
73586;DHT22;61865;50.232;18.614;2023-03-23T08:58:34;16.30;67.20
73586;DHT22;61865;50.232;18.614;2023-03-23T09:00:57;16.40;65.90
73586;DHT22;61865;50.232;18.614;2023-03-23T09:03:20;16.50;64.70
73586;DHT22;61865;50.232;18.614;2023-03-23T09:05:42;16.50;64.80
73586;DHT22;61865;50.232;18.614;2023-03-23T09:08:07;16.50;65.70
73586;DHT22;61865;50.232;18.614;2023-03-23T09:10:29;16.40;64.80
73586;DHT22;61865;50.232;18.614;2023-03-23T09:12:52;16.30;65.40
73586;DHT22;61865;50.232;18.614;2023-03-23T09:15:17;16.10;63.20
73586;DHT22;61865;50.232;18.614;2023-03-23T09:17:42;16.00;64.40
73586;DHT22;61865;50.232;18.614;2023-03-23T09:20:06;15.90;64.60
73586;DHT22;61865;50.232;18.614;2023-03-23T09:22:31;15.80;64.10
73586;DHT22;61865;50.232;18.614;2023-03-23T09:24:53;15.60;64.50
73586;DHT22;61865;50.232;18.614;2023-03-23T09:27:15;15.60;64.30
73586;DHT22;61865;50.232;18.614;2023-03-23T09:29:37;15.60;66.00
73586;DHT22;61865;50.232;18.614;2023-03-23T09:32:02;15.80;65.80
73586;DHT22;61865;50.232;18.614;2023-03-23T09:34:25;16.00;65.40
73586;DHT22;61865;50.232;18.614;2023-03-23T09:36:49;16.20;62.90
73586;DHT22;61865;50.232;18.614;2023-03-23T09:39:12;16.50;64.30
73586;DHT22;61865;50.232;18.614;2023-03-23T09:41:59;16.80;60.70
73586;DHT22;61865;50.232;18.614;2023-03-23T09:44:33;17.00;60.30
73586;DHT22;61865;50.232;18.614;2023-03-23T09:47:00;17.10;59.20
73586;DHT22;61865;50.232;18.614;2023-03-23T09:49:30;16.90;58.20
73586;DHT22;61865;50.232;18.614;2023-03-23T09:51:56;16.80;59.60
73586;DHT22;61865;50.232;18.614;2023-03-23T09:54:21;16.70;59.10
73586;DHT22;61865;50.232;18.614;2023-03-23T09:56:45;16.60;59.50
73586;DHT22;61865;50.232;18.614;2023-03-23T09:59:14;16.70;58.70
73586;DHT22;61865;50.232;18.614;2023-03-23T10:01:42;16.70;58.30
73586;DHT22;61865;50.232;18.614;2023-03-23T10:04:12;16.80;57.30
73586;DHT22;61865;50.232;18.614;2023-03-23T10:06:37;16.90;57.30
73586;DHT22;61865;50.232;18.614;2023-03-23T10:09:02;16.90;58.20
73586;DHT22;61865;50.232;18.614;2023-03-23T10:11:33;17.00;56.40
73586;DHT22;61865;50.232;18.614;2023-03-23T10:14:17;17.10;57.20
73586;DHT22;61865;50.232;18.614;2023-03-23T10:16:48;17.40;55.50
73586;DHT22;61865;50.232;18.614;2023-03-23T10:19:20;17.40;54.90
73586;DHT22;61865;50.232;18.614;2023-03-23T10:21:47;17.40;56.30
73586;DHT22;61865;50.232;18.614;2023-03-23T10:24:15;17.40;55.20
73586;DHT22;61865;50.232;18.614;2023-03-23T10:26:47;17.60;53.60
73586;DHT22;61865;50.232;18.614;2023-03-23T10:29:17;17.70;54.10
73586;DHT22;61865;50.232;18.614;2023-03-23T10:31:43;17.60;53.70
73586;DHT22;61865;50.232;18.614;2023-03-23T10:34:12;17.50;54.60
73586;DHT22;61865;50.232;18.614;2023-03-23T10:36:38;17.40;53.60
73586;DHT22;61865;50.232;18.614;2023-03-23T10:39:11;17.40;54.70
73586;DHT22;61865;50.232;18.614;2023-03-23T10:41:34;17.40;55.20
73586;DHT22;61865;50.232;18.614;2023-03-23T10:43:57;17.30;54.50
73586;DHT22;61865;50.232;18.614;2023-03-23T10:46:30;17.30;55.10
73586;DHT22;61865;50.232;18.614;2023-03-23T10:48:54;17.40;54.80
73586;DHT22;61865;50.232;18.614;2023-03-23T10:51:22;17.40;54.70
73586;DHT22;61865;50.232;18.614;2023-03-23T10:53:49;17.40;54.70
73586;DHT22;61865;50.232;18.614;2023-03-23T10:56:22;17.40;54.50
73586;DHT22;61865;50.232;18.614;2023-03-23T10:58:45;17.50;54.30
73586;DHT22;61865;50.232;18.614;2023-03-23T11:01:12;17.60;54.20
73586;DHT22;61865;50.232;18.614;2023-03-23T11:03:40;17.50;54.60
73586;DHT22;61865;50.232;18.614;2023-03-23T11:06:04;17.60;53.90
73586;DHT22;61865;50.232;18.614;2023-03-23T11:08:28;17.60;53.90
73586;DHT22;61865;50.232;18.614;2023-03-23T11:10:53;17.80;53.90
73586;DHT22;61865;50.232;18.614;2023-03-23T11:13:17;17.60;53.70
73586;DHT22;61865;50.232;18.614;2023-03-23T11:15:41;17.70;54.20
73586;DHT22;61865;50.232;18.614;2023-03-23T11:18:04;17.70;53.40
73586;DHT22;61865;50.232;18.614;2023-03-23T11:20:29;17.60;54.50
73586;DHT22;61865;50.232;18.614;2023-03-23T11:22:56;17.80;54.00
73586;DHT22;61865;50.232;18.614;2023-03-23T11:25:18;17.90;54.10
73586;DHT22;61865;50.232;18.614;2023-03-23T11:27:42;18.00;53.20
73586;DHT22;61865;50.232;18.614;2023-03-23T11:30:11;18.20;52.30
73586;DHT22;61865;50.232;18.614;2023-03-23T11:32:35;18.30;52.50
73586;DHT22;61865;50.232;18.614;2023-03-23T11:34:59;18.30;52.50
73586;DHT22;61865;50.232;18.614;2023-03-23T11:37:28;18.40;52.60
73586;DHT22;61865;50.232;18.614;2023-03-23T11:39:55;18.40;51.90
73586;DHT22;61865;50.232;18.614;2023-03-23T11:42:20;18.70;51.90
73586;DHT22;61865;50.232;18.614;2023-03-23T11:44:43;18.80;51.30
73586;DHT22;61865;50.232;18.614;2023-03-23T11:49:52;19.10;50.90
73586;DHT22;61865;50.232;18.614;2023-03-23T11:52:21;19.30;50.80
73586;DHT22;61865;50.232;18.614;2023-03-23T11:54:50;19.30;50.50
73586;DHT22;61865;50.232;18.614;2023-03-23T11:57:14;19.40;50.10
73586;DHT22;61865;50.232;18.614;2023-03-23T11:59:36;19.50;49.50
73586;DHT22;61865;50.232;18.614;2023-03-23T12:02:16;19.30;50.00
73586;DHT22;61865;50.232;18.614;2023-03-23T12:04:57;19.50;49.60
73586;DHT22;61865;50.232;18.614;2023-03-23T12:07:35;19.30;50.00
73586;DHT22;61865;50.232;18.614;2023-03-23T12:10:06;19.40;50.00
73586;DHT22;61865;50.232;18.614;2023-03-23T12:12:39;19.50;49.90
73586;DHT22;61865;50.232;18.614;2023-03-23T12:15:07;19.40;50.30
73586;DHT22;61865;50.232;18.614;2023-03-23T12:17:41;19.40;49.40
73586;DHT22;61865;50.232;18.614;2023-03-23T12:20:21;19.50;49.80
73586;DHT22;61865;50.232;18.614;2023-03-23T12:23:01;19.50;49.70
73586;DHT22;61865;50.232;18.614;2023-03-23T12:25:44;19.40;49.00
73586;DHT22;61865;50.232;18.614;2023-03-23T12:28:16;19.40;49.40
73586;DHT22;61865;50.232;18.614;2023-03-23T12:30:45;19.40;49.70
73586;DHT22;61865;50.232;18.614;2023-03-23T12:33:19;19.40;49.80
73586;DHT22;61865;50.232;18.614;2023-03-23T12:35:56;19.30;50.00
73586;DHT22;61865;50.232;18.614;2023-03-23T12:38:37;19.30;49.40
73586;DHT22;61865;50.232;18.614;2023-03-23T12:41:08;19.50;48.90
73586;DHT22;61865;50.232;18.614;2023-03-23T12:43:38;19.50;48.90
73586;DHT22;61865;50.232;18.614;2023-03-23T12:46:25;19.50;49.20
73586;DHT22;61865;50.232;18.614;2023-03-23T12:48:54;19.40;48.90
73586;DHT22;61865;50.232;18.614;2023-03-23T12:51:21;19.30;49.70
73586;DHT22;61865;50.232;18.614;2023-03-23T12:53:50;19.40;48.90
73586;DHT22;61865;50.232;18.614;2023-03-23T12:56:16;19.40;49.10
73586;DHT22;61865;50.232;18.614;2023-03-23T12:58:43;19.40;48.70
73586;DHT22;61865;50.232;18.614;2023-03-23T13:01:10;19.30;48.60
73586;DHT22;61865;50.232;18.614;2023-03-23T13:03:39;19.40;49.10
73586;DHT22;61865;50.232;18.614;2023-03-23T13:06:09;19.60;48.40
73586;DHT22;61865;50.232;18.614;2023-03-23T13:08:37;19.70;47.90
73586;DHT22;61865;50.232;18.614;2023-03-23T13:11:04;19.70;47.40
73586;DHT22;61865;50.232;18.614;2023-03-23T13:13:41;19.70;47.80
73586;DHT22;61865;50.232;18.614;2023-03-23T13:16:08;19.80;47.80
73586;DHT22;61865;50.232;18.614;2023-03-23T13:18:39;19.70;46.90
73586;DHT22;61865;50.232;18.614;2023-03-23T13:21:12;19.70;47.20
73586;DHT22;61865;50.232;18.614;2023-03-23T13:23:38;19.70;47.60
73586;DHT22;61865;50.232;18.614;2023-03-23T13:26:03;19.70;47.50
73586;DHT22;61865;50.232;18.614;2023-03-23T13:28:27;19.70;47.90
73586;DHT22;61865;50.232;18.614;2023-03-23T13:30:57;19.70;47.00
73586;DHT22;61865;50.232;18.614;2023-03-23T13:33:20;19.60;48.90
73586;DHT22;61865;50.232;18.614;2023-03-23T13:35:42;19.70;47.20
73586;DHT22;61865;50.232;18.614;2023-03-23T13:38:19;19.70;47.20
73586;DHT22;61865;50.232;18.614;2023-03-23T13:40:43;19.60;47.40
73586;DHT22;61865;50.232;18.614;2023-03-23T13:43:08;19.80;46.90
73586;DHT22;61865;50.232;18.614;2023-03-23T13:45:42;19.90;47.20
73586;DHT22;61865;50.232;18.614;2023-03-23T13:48:16;19.90;46.50
73586;DHT22;61865;50.232;18.614;2023-03-23T13:50:48;19.90;46.70
73586;DHT22;61865;50.232;18.614;2023-03-23T13:53:22;20.00;46.80
73586;DHT22;61865;50.232;18.614;2023-03-23T13:55:49;20.00;46.70
73586;DHT22;61865;50.232;18.614;2023-03-23T13:58:21;19.90;46.80
73586;DHT22;61865;50.232;18.614;2023-03-23T14:00:47;19.70;47.20
73586;DHT22;61865;50.232;18.614;2023-03-23T14:03:14;19.70;47.80
73586;DHT22;61865;50.232;18.614;2023-03-23T14:05:37;19.70;47.60
73586;DHT22;61865;50.232;18.614;2023-03-23T14:08:02;19.60;48.10
73586;DHT22;61865;50.232;18.614;2023-03-23T14:10:32;19.70;47.60
73586;DHT22;61865;50.232;18.614;2023-03-23T14:12:55;19.70;47.90
73586;DHT22;61865;50.232;18.614;2023-03-23T14:15:17;19.80;48.10
73586;DHT22;61865;50.232;18.614;2023-03-23T14:17:42;19.80;47.50
73586;DHT22;61865;50.232;18.614;2023-03-23T14:20:06;19.90;47.10
73586;DHT22;61865;50.232;18.614;2023-03-23T14:22:32;19.80;47.30
73586;DHT22;61865;50.232;18.614;2023-03-23T14:25:00;19.80;47.70
73586;DHT22;61865;50.232;18.614;2023-03-23T14:27:31;19.90;47.40
73586;DHT22;61865;50.232;18.614;2023-03-23T14:30:00;19.90;47.00
73586;DHT22;61865;50.232;18.614;2023-03-23T14:32:22;20.00;46.80
73586;DHT22;61865;50.232;18.614;2023-03-23T14:34:47;19.90;46.40
73586;DHT22;61865;50.232;18.614;2023-03-23T14:37:12;19.90;46.50
73586;DHT22;61865;50.232;18.614;2023-03-23T14:39:36;19.80;47.00
73586;DHT22;61865;50.232;18.614;2023-03-23T14:42:02;19.60;46.90
73586;DHT22;61865;50.232;18.614;2023-03-23T14:44:29;19.40;47.00
73586;DHT22;61865;50.232;18.614;2023-03-23T14:46:53;19.40;47.00
73586;DHT22;61865;50.232;18.614;2023-03-23T14:49:24;19.30;49.10
73586;DHT22;61865;50.232;18.614;2023-03-23T14:51:49;19.30;48.20
73586;DHT22;61865;50.232;18.614;2023-03-23T14:54:12;19.20;48.00
73586;DHT22;61865;50.232;18.614;2023-03-23T14:56:35;19.10;48.60
73586;DHT22;61865;50.232;18.614;2023-03-23T14:59:03;19.00;49.80
73586;DHT22;61865;50.232;18.614;2023-03-23T15:01:29;18.90;49.70
73586;DHT22;61865;50.232;18.614;2023-03-23T15:03:56;18.90;49.30
73586;DHT22;61865;50.232;18.614;2023-03-23T15:06:21;18.90;49.90
73586;DHT22;61865;50.232;18.614;2023-03-23T15:08:44;18.80;50.10
73586;DHT22;61865;50.232;18.614;2023-03-23T15:11:13;18.70;50.10
73586;DHT22;61865;50.232;18.614;2023-03-23T15:13:35;18.60;49.50
73586;DHT22;61865;50.232;18.614;2023-03-23T15:16:05;18.60;49.60
73586;DHT22;61865;50.232;18.614;2023-03-23T15:18:35;18.50;49.90
73586;DHT22;61865;50.232;18.614;2023-03-23T15:20:58;18.40;51.00
73586;DHT22;61865;50.232;18.614;2023-03-23T15:23:29;18.40;50.40